createdAt,value
2023-01-01T00:02:41.299Z,14.74
2023-01-01T00:07:44.130Z,14.82
2023-01-01T00:12:48.244Z,14.96
2023-01-01T00:17:51.055Z,14.97
2023-01-01T00:22:56.105Z,14.80
2023-01-01T00:28:00.838Z,14.80
2023-01-01T00:33:03.590Z,14.84
2023-01-01T00:38:06.375Z,14.82
2023-01-01T00:43:10.578Z,14.88
2023-01-01T00:48:13.370Z,14.95
2023-01-01T00:53:16.705Z,14.97
2023-01-01T00:58:20.902Z,14.95
2023-01-01T01:03:30.452Z,14.83
2023-01-01T01:08:34.997Z,14.91
2023-01-01T01:13:40.198Z,14.89
2023-01-01T01:18:43.345Z,14.92
2023-01-01T01:23:46.549Z,14.91
2023-01-01T01:28:51.429Z,14.98
2023-01-01T01:33:54.270Z,14.97
2023-01-01T01:38:57.419Z,15.08
2023-01-01T01:44:03.221Z,14.84
2023-01-01T01:49:13.792Z,14.98
2023-01-01T01:54:21.638Z,14.83
2023-01-01T01:59:28.313Z,14.95
2023-01-01T02:04:31.179Z,14.85
2023-01-01T02:09:34.107Z,14.93
2023-01-01T02:14:38.270Z,14.95
2023-01-01T02:19:56.679Z,14.98
2023-01-01T02:25:10.017Z,15.00
2023-01-01T02:30:15.407Z,14.95
2023-01-01T02:35:38.776Z,15.19
2023-01-01T02:40:45.230Z,14.98
2023-01-01T02:45:49.951Z,15.04
2023-01-01T02:50:53.218Z,14.96
2023-01-01T02:56:06.135Z,14.99
2023-01-01T03:01:19.768Z,15.02
2023-01-01T03:06:30.834Z,14.97
2023-01-01T03:11:43.337Z,14.90
2023-01-01T03:16:50.058Z,14.83
2023-01-01T03:21:59.135Z,14.54
2023-01-01T03:27:06.147Z,14.70
2023-01-01T03:32:14.469Z,14.77
2023-01-01T03:37:22.806Z,14.55
2023-01-01T03:42:33.371Z,14.63
2023-01-01T03:47:38.372Z,14.49
2023-01-01T03:52:50.824Z,14.43
2023-01-01T03:58:03.226Z,14.43
2023-01-01T04:03:10.669Z,14.62
2023-01-01T04:08:15.952Z,14.60
2023-01-01T04:13:18.806Z,14.54
2023-01-01T04:18:22.925Z,14.51
2023-01-01T04:23:25.730Z,14.36
2023-01-01T04:28:28.482Z,14.40
2023-01-01T04:33:32.969Z,14.37
2023-01-01T04:38:36.803Z,14.51
2023-01-01T04:43:39.543Z,14.48
2023-01-01T04:48:43.766Z,14.41
2023-01-01T04:53:47.123Z,14.45
2023-01-01T04:58:50.622Z,14.51
2023-01-01T05:03:55.440Z,14.57
2023-01-01T05:08:59.574Z,14.61
2023-01-01T05:14:03.142Z,14.49
2023-01-01T05:19:08.912Z,14.55
2023-01-01T05:24:12.249Z,14.56
2023-01-01T05:29:17.043Z,14.54
2023-01-01T05:34:21.486Z,14.56
2023-01-01T05:39:24.235Z,14.68
2023-01-01T05:44:27.008Z,14.53
2023-01-01T05:49:31.152Z,14.95
2023-01-01T05:54:33.956Z,14.62
2023-01-01T05:59:36.735Z,14.68
2023-01-01T06:04:40.933Z,14.69
2023-01-01T06:09:44.081Z,14.60
2023-01-01T06:14:46.900Z,14.69
2023-01-01T06:19:51.004Z,14.62
2023-01-01T06:24:53.744Z,14.58
2023-01-01T06:29:57.658Z,14.68
2023-01-01T06:35:01.766Z,14.79
2023-01-01T06:40:05.868Z,14.72
2023-01-01T06:45:10.212Z,14.72
2023-01-01T06:50:14.344Z,14.56
2023-01-01T06:55:17.286Z,14.56
2023-01-01T07:00:20.245Z,14.50
2023-01-01T07:05:24.397Z,14.44
2023-01-01T07:10:27.252Z,14.39
2023-01-01T07:15:31.519Z,14.32
2023-01-01T07:20:35.713Z,14.22
2023-01-01T07:25:38.500Z,14.10
2023-01-01T07:30:41.345Z,14.03
2023-01-01T07:35:46.429Z,14.18
2023-01-01T07:40:49.245Z,14.08
2023-01-01T07:45:52.098Z,14.06
2023-01-01T07:50:56.340Z,14.06
2023-01-01T07:55:59.161Z,14.17
2023-01-01T08:01:01.997Z,14.04
2023-01-01T08:06:10.003Z,14.13
2023-01-01T08:11:12.757Z,14.11
2023-01-01T08:16:15.588Z,13.99
2023-01-01T08:21:19.725Z,13.95
2023-01-01T08:26:29.295Z,14.01
2023-01-01T08:31:32.135Z,14.05
2023-01-01T08:36:36.402Z,13.97
2023-01-01T08:41:39.195Z,14.10
2023-01-01T08:46:42.097Z,14.06
2023-01-01T08:51:46.346Z,14.07
2023-01-01T08:56:49.155Z,14.13
2023-01-01T09:01:52.084Z,14.28
2023-01-01T09:06:56.375Z,14.16
2023-01-01T09:12:04.037Z,14.41
2023-01-01T09:17:07.096Z,14.25
2023-01-01T09:22:12.276Z,14.20
2023-01-01T09:27:15.091Z,13.93
2023-01-01T09:32:18.628Z,13.93
2023-01-01T09:37:22.727Z,14.26
2023-01-01T09:42:36.852Z,14.21
2023-01-01T09:47:42.727Z,14.13
2023-01-01T09:52:51.877Z,14.30
2023-01-01T09:57:56.563Z,14.27
2023-01-01T10:03:14.389Z,14.43
2023-01-01T10:08:31.536Z,14.35
2023-01-01T10:13:39.231Z,14.24
2023-01-01T10:18:43.475Z,14.41
2023-01-01T10:23:53.782Z,14.57
2023-01-01T10:29:02.560Z,14.56
2023-01-01T10:34:15.908Z,14.71
2023-01-01T10:39:20.600Z,14.80
2023-01-01T10:44:31.004Z,14.57
2023-01-01T10:49:33.983Z,14.50
2023-01-01T10:54:41.618Z,14.40
2023-01-01T10:59:53.518Z,14.33
2023-01-01T11:05:21.524Z,14.04
2023-01-01T11:10:26.719Z,14.03
2023-01-01T11:15:37.828Z,13.98
2023-01-01T11:20:41.580Z,13.72
2023-01-01T11:26:01.293Z,13.70
2023-01-01T11:31:16.993Z,13.66
2023-01-01T11:36:25.527Z,13.61
2023-01-01T11:41:29.790Z,13.59
2023-01-01T11:46:33.169Z,13.64
2023-01-01T11:51:36.145Z,13.49
2023-01-01T11:56:41.210Z,13.68
2023-01-01T12:01:48.135Z,13.46
2023-01-01T12:06:56.622Z,13.31
2023-01-01T12:12:05.119Z,13.31
2023-01-01T12:17:15.993Z,13.39
2023-01-01T12:22:20.458Z,13.43
2023-01-01T12:27:43.379Z,13.48
2023-01-01T12:33:08.230Z,13.78
2023-01-01T12:38:20.765Z,13.73
2023-01-01T12:43:32.851Z,13.60
2023-01-01T12:49:08.576Z,13.49
2023-01-01T12:54:55.599Z,13.36
2023-01-01T13:00:04.425Z,13.28
2023-01-01T13:05:17.085Z,13.27
2023-01-01T13:10:27.586Z,13.02
2023-01-01T13:15:49.379Z,12.98
2023-01-01T13:20:58.271Z,12.79
2023-01-01T13:26:32.112Z,12.72
2023-01-01T13:32:01.944Z,12.74
2023-01-01T13:37:26.847Z,12.75
2023-01-01T13:42:43.856Z,12.75
2023-01-01T13:48:05.701Z,12.74
2023-01-01T13:53:38.396Z,12.71
2023-01-01T13:59:07.805Z,12.69
2023-01-01T14:04:27.319Z,12.43
2023-01-01T14:09:30.196Z,12.38
2023-01-01T14:14:34.372Z,12.30
2023-01-01T14:19:41.580Z,12.20
2023-01-01T14:24:47.130Z,12.42
2023-01-01T14:29:52.410Z,12.19
2023-01-01T14:35:03.566Z,12.23
2023-01-01T14:40:17.022Z,12.14
2023-01-01T14:45:20.271Z,12.09
2023-01-01T14:50:30.839Z,11.99
2023-01-01T14:55:40.371Z,11.77
2023-01-01T15:00:43.427Z,11.74
2023-01-01T15:05:58.821Z,11.64
2023-01-01T15:11:04.482Z,11.42
2023-01-01T15:16:17.681Z,11.27
2023-01-01T15:21:38.734Z,11.26
2023-01-01T15:26:44.202Z,11.29
2023-01-01T15:31:50.341Z,11.22
2023-01-01T15:36:56.693Z,11.14
2023-01-01T15:41:59.636Z,11.10
2023-01-01T15:47:12.721Z,11.30
2023-01-01T15:52:27.792Z,11.38
2023-01-01T15:57:30.707Z,11.48
2023-01-01T16:02:36.480Z,11.49
2023-01-01T16:07:40.804Z,11.58
2023-01-01T16:12:43.602Z,11.70
2023-01-01T16:17:47.177Z,11.65
2023-01-01T16:22:51.328Z,11.80
2023-01-01T16:27:54.081Z,11.58
2023-01-01T16:32:57.135Z,11.60
2023-01-01T16:38:01.248Z,11.56
2023-01-01T16:43:05.751Z,11.61
2023-01-01T16:48:08.669Z,11.72
2023-01-01T16:53:14.603Z,11.71
2023-01-01T16:58:48.613Z,11.64
2023-01-01T17:03:40.270Z,11.48
2023-01-01T17:08:44.463Z,11.58
2023-01-01T17:13:48.615Z,11.56
2023-01-01T17:24:16.616Z,11.60
2023-01-01T17:29:19.720Z,11.50
2023-01-01T17:34:22.761Z,11.57
2023-01-01T17:39:27.061Z,11.65
2023-01-01T17:44:32.015Z,11.57
2023-01-01T17:49:34.916Z,11.58
2023-01-01T17:54:39.299Z,11.59
2023-01-01T17:59:42.098Z,11.59
2023-01-01T18:04:45.143Z,11.58
2023-01-01T18:09:49.804Z,11.45
2023-01-01T18:14:52.663Z,11.50
2023-01-01T18:19:55.465Z,11.71
2023-01-01T18:24:59.789Z,11.63
2023-01-01T18:30:02.640Z,11.81
2023-01-01T18:35:06.528Z,11.57
2023-01-01T18:40:15.318Z,11.74
2023-01-01T18:45:21.333Z,11.68
2023-01-01T18:50:27.519Z,11.62
2023-01-01T18:55:32.291Z,11.61
2023-01-01T19:00:38.200Z,11.66
2023-01-01T19:05:41.039Z,11.60
2023-01-01T19:10:49.759Z,11.69
2023-01-01T19:15:58.331Z,11.63
2023-01-01T19:21:15.834Z,11.64
2023-01-01T19:26:25.705Z,11.76
2023-01-01T19:31:36.133Z,11.85
2023-01-01T19:36:39.308Z,11.83
2023-01-01T19:41:44.959Z,11.82
2023-01-01T19:46:47.878Z,11.87
2023-01-01T19:51:52.742Z,11.89
2023-01-01T19:56:58.213Z,12.04
2023-01-01T20:07:25.367Z,12.12
2023-01-01T20:12:29.581Z,12.17
2023-01-01T20:17:32.545Z,12.26
2023-01-01T20:22:35.822Z,11.99
2023-01-01T20:28:00.596Z,12.04
2023-01-01T20:33:06.366Z,11.80
2023-01-01T20:38:09.221Z,11.69
2023-01-01T20:43:13.505Z,11.62
2023-01-01T20:48:19.781Z,11.63
2023-01-01T20:53:22.939Z,11.68
2023-01-01T20:58:28.419Z,11.73
2023-01-01T21:03:31.438Z,11.63
2023-01-01T21:08:34.400Z,11.64
2023-01-01T21:13:38.968Z,11.61
2023-01-01T21:18:42.291Z,11.63
2023-01-01T21:23:45.152Z,11.63
2023-01-01T21:28:49.573Z,11.46
2023-01-01T21:33:52.524Z,11.42
2023-01-01T21:38:55.539Z,11.52
2023-01-01T21:44:00.214Z,11.56
2023-01-01T21:49:07.684Z,11.71
2023-01-01T21:54:19.400Z,11.74
2023-01-01T21:59:38.516Z,11.71
2023-01-01T22:04:43.021Z,11.76
2023-01-01T22:09:47.966Z,11.65
2023-01-01T22:14:54.001Z,11.61
2023-01-01T22:20:00.777Z,11.60
2023-01-01T22:25:26.189Z,11.57
2023-01-01T22:30:41.320Z,11.50
2023-01-01T22:35:44.519Z,11.56
2023-01-01T22:40:49.779Z,11.76
2023-01-01T22:45:54.671Z,11.75
2023-01-01T22:51:01.828Z,11.85
2023-01-01T22:56:04.926Z,11.90
2023-01-01T23:01:09.127Z,11.87
2023-01-01T23:06:11.996Z,11.81
2023-01-01T23:11:14.810Z,11.73
2023-01-01T23:16:19.052Z,11.73
2023-01-01T23:21:27.283Z,11.69
2023-01-01T23:26:30.190Z,11.64
2023-01-01T23:31:35.328Z,11.75
2023-01-01T23:36:39.281Z,11.78
2023-01-01T23:41:42.289Z,11.61
2023-01-01T23:46:46.859Z,11.54
2023-01-01T23:51:50.879Z,11.60
2023-01-01T23:56:53.644Z,11.56
